createdAt,value
2023-02-23T00:01:42.027Z,10.54
2023-02-23T00:04:10.335Z,10.37
2023-02-23T00:06:39.019Z,10.52
2023-02-23T00:09:15.513Z,10.54
2023-02-23T00:11:43.321Z,10.39
2023-02-23T00:14:11.123Z,9.88
2023-02-23T00:16:38.896Z,9.67
2023-02-23T00:19:08.305Z,9.58
2023-02-23T00:21:36.219Z,10.13
2023-02-23T00:24:09.949Z,10.32
2023-02-23T00:26:43.125Z,10.52
2023-02-23T00:29:17.157Z,10.36
2023-02-23T00:31:45.345Z,10.20
2023-02-23T00:34:15.966Z,10.18
2023-02-23T00:36:44.482Z,10.01
2023-02-23T00:39:21.626Z,10.05
2023-02-23T00:41:50.425Z,10.05
2023-02-23T00:44:18.263Z,10.11
2023-02-23T00:46:49.412Z,9.96
2023-02-23T00:49:17.488Z,9.98
2023-02-23T00:51:45.516Z,9.44
2023-02-23T00:54:15.571Z,9.66
2023-02-23T00:56:43.606Z,10.01
2023-02-23T00:59:12.058Z,10.18
2023-02-23T01:01:41.831Z,9.99
2023-02-23T01:04:11.139Z,9.39
2023-02-23T01:06:41.303Z,9.62
2023-02-23T01:09:10.408Z,9.77
2023-02-23T01:11:41.329Z,10.03
2023-02-23T01:14:11.812Z,9.89
2023-02-23T01:16:39.863Z,9.96
2023-02-23T01:19:08.827Z,10.12
2023-02-23T01:21:39.444Z,10.25
2023-02-23T01:24:07.847Z,10.22
2023-02-23T01:26:39.717Z,9.99
2023-02-23T01:29:10.356Z,9.69
2023-02-23T01:31:39.727Z,9.68
2023-02-23T01:34:08.344Z,9.91
2023-02-23T01:36:38.898Z,9.85
2023-02-23T01:39:08.786Z,9.86
2023-02-23T01:41:37.890Z,9.78
2023-02-23T01:44:09.289Z,9.88
2023-02-23T01:46:39.781Z,9.63
2023-02-23T01:49:11.155Z,9.73
2023-02-23T01:51:43.868Z,9.77
2023-02-23T01:54:17.605Z,9.69
2023-02-23T01:56:49.226Z,9.43
2023-02-23T01:59:19.201Z,9.38
2023-02-23T02:01:48.200Z,9.28
2023-02-23T02:04:19.475Z,9.60
2023-02-23T02:06:53.575Z,9.66
2023-02-23T02:09:25.671Z,9.57
2023-02-23T02:11:54.434Z,9.48
2023-02-23T02:14:28.441Z,9.72
2023-02-23T02:17:16.302Z,9.93
2023-02-23T02:20:14.879Z,10.09
2023-02-23T02:23:08.379Z,9.54
2023-02-23T02:25:50.661Z,9.74
2023-02-23T02:29:03.559Z,9.43
2023-02-23T02:32:11.117Z,9.45
2023-02-23T02:35:11.657Z,9.77
2023-02-23T02:38:03.931Z,9.87
2023-02-23T02:40:53.160Z,9.87
2023-02-23T02:43:27.704Z,9.88
2023-02-23T02:46:02.636Z,9.90
2023-02-23T02:48:41.800Z,9.37
2023-02-23T02:51:20.329Z,9.39
2023-02-23T02:53:58.138Z,9.33
2023-02-23T02:56:28.205Z,9.33
2023-02-23T02:58:56.754Z,9.69
2023-02-23T03:01:41.947Z,9.24
2023-02-23T03:04:42.216Z,9.35
2023-02-23T03:07:38.786Z,9.24
2023-02-23T03:10:36.834Z,9.35
2023-02-23T03:13:36.056Z,8.91
2023-02-23T03:16:34.241Z,9.18
2023-02-23T03:19:30.121Z,9.10
2023-02-23T03:22:24.930Z,8.83
2023-02-23T03:25:15.481Z,8.84
2023-02-23T03:28:07.435Z,8.87
2023-02-23T03:31:02.161Z,9.26
2023-02-23T03:33:55.637Z,9.50
2023-02-23T03:36:44.453Z,9.50
2023-02-23T03:39:38.584Z,9.70
2023-02-23T03:42:29.383Z,9.27
2023-02-23T03:45:20.444Z,9.38
2023-02-23T03:48:08.743Z,9.53
2023-02-23T03:50:59.038Z,9.67
2023-02-23T03:53:52.346Z,9.62
2023-02-23T03:56:42.999Z,9.35
2023-02-23T03:59:33.333Z,9.35
2023-02-23T04:02:21.290Z,9.18
2023-02-23T04:05:07.798Z,9.10
2023-02-23T04:07:53.731Z,8.91
2023-02-23T04:10:40.053Z,9.31
2023-02-23T04:13:17.344Z,9.27
2023-02-23T04:15:53.521Z,8.99
2023-02-23T04:18:27.182Z,9.08
2023-02-23T04:20:55.574Z,8.88
2023-02-23T04:23:24.089Z,9.04
2023-02-23T04:25:52.663Z,9.33
2023-02-23T04:28:20.817Z,9.54
2023-02-23T04:30:48.781Z,9.59
2023-02-23T04:33:16.955Z,9.48
2023-02-23T04:35:46.154Z,9.40
2023-02-23T04:38:13.898Z,9.53
2023-02-23T04:40:41.743Z,9.67
2023-02-23T04:43:11.487Z,9.50
2023-02-23T04:45:39.348Z,9.54
2023-02-23T04:48:07.797Z,9.57
2023-02-23T04:50:35.987Z,9.49
2023-02-23T04:53:05.576Z,9.59
2023-02-23T04:55:33.760Z,9.53
2023-02-23T04:58:04.137Z,9.55
2023-02-23T05:00:33.455Z,9.80
2023-02-23T05:03:01.199Z,9.86
2023-02-23T05:05:29.056Z,9.86
2023-02-23T05:07:56.838Z,9.87
2023-02-23T05:10:25.995Z,9.98
2023-02-23T05:12:53.789Z,10.00
2023-02-23T05:15:21.571Z,10.06
2023-02-23T05:17:51.407Z,10.09
2023-02-23T05:20:19.248Z,9.97
2023-02-23T05:22:47.063Z,10.00
2023-02-23T05:25:15.220Z,9.97
2023-02-23T05:27:44.368Z,9.91
2023-02-23T05:30:15.524Z,9.88
2023-02-23T05:32:43.373Z,9.95
2023-02-23T05:35:12.392Z,9.67
2023-02-23T05:37:40.136Z,9.81
2023-02-23T05:40:09.508Z,9.83
2023-02-23T05:42:39.439Z,9.85
2023-02-23T05:45:10.915Z,9.90
2023-02-23T05:47:39.076Z,10.00
2023-02-23T05:50:08.019Z,9.98
2023-02-23T05:52:41.611Z,10.06
2023-02-23T05:55:11.567Z,10.12
2023-02-23T05:57:39.628Z,10.12
2023-02-23T06:00:12.100Z,10.04
2023-02-23T06:02:41.725Z,9.88
2023-02-23T06:05:09.991Z,9.66
2023-02-23T06:07:37.787Z,9.75
2023-02-23T06:10:06.850Z,9.94
2023-02-23T06:12:34.720Z,9.81
2023-02-23T06:15:02.515Z,9.59
2023-02-23T06:17:32.153Z,9.80
2023-02-23T06:20:01.935Z,9.80
2023-02-23T06:22:29.721Z,9.98
2023-02-23T06:24:57.613Z,10.03
2023-02-23T06:27:26.192Z,10.07
2023-02-23T06:29:54.135Z,10.09
2023-02-23T06:32:22.088Z,10.10
2023-02-23T06:34:53.039Z,9.98
2023-02-23T06:37:20.839Z,10.00
2023-02-23T06:39:50.984Z,9.86
2023-02-23T06:42:18.940Z,10.04
2023-02-23T06:44:46.766Z,10.10
2023-02-23T06:47:14.582Z,10.03
2023-02-23T06:49:42.613Z,10.11
2023-02-23T06:52:13.491Z,10.11
2023-02-23T06:54:41.794Z,9.99
2023-02-23T06:57:09.663Z,10.17
2023-02-23T06:59:37.839Z,10.25
2023-02-23T07:02:05.866Z,10.24
2023-02-23T07:04:34.450Z,10.22
2023-02-23T07:07:03.667Z,10.23
2023-02-23T07:09:32.815Z,10.21
2023-02-23T07:12:01.023Z,10.24
2023-02-23T07:14:31.072Z,10.36
2023-02-23T07:16:58.820Z,10.31
2023-02-23T07:19:26.812Z,10.41
2023-02-23T07:21:54.673Z,10.37
2023-02-23T07:24:24.472Z,10.48
2023-02-23T07:26:53.617Z,10.43
2023-02-23T07:29:22.726Z,10.41
2023-02-23T07:31:50.797Z,10.53
2023-02-23T07:34:18.755Z,10.70
2023-02-23T07:36:46.544Z,10.82
2023-02-23T07:39:14.519Z,10.90
2023-02-23T07:41:42.389Z,11.01
2023-02-23T07:44:20.369Z,10.71
2023-02-23T07:46:48.404Z,10.84
2023-02-23T07:49:16.490Z,11.07
2023-02-23T07:51:44.338Z,11.25
2023-02-23T07:54:12.132Z,11.32
2023-02-23T07:56:39.901Z,11.38
2023-02-23T07:59:07.683Z,11.45
2023-02-23T08:01:37.038Z,11.51
2023-02-23T08:04:05.538Z,11.55
2023-02-23T08:06:33.384Z,11.50
2023-02-23T08:09:02.013Z,11.04
2023-02-23T08:11:29.950Z,10.81
2023-02-23T08:14:00.073Z,11.15
2023-02-23T08:16:28.431Z,11.04
2023-02-23T08:19:01.068Z,11.27
2023-02-23T08:21:30.616Z,11.49
2023-02-23T08:23:58.925Z,11.38
2023-02-23T08:26:27.158Z,11.55
2023-02-23T08:28:54.915Z,11.66
2023-02-23T08:31:24.522Z,11.68
2023-02-23T08:33:53.778Z,11.28
2023-02-23T08:36:23.142Z,11.59
2023-02-23T08:38:53.696Z,11.45
2023-02-23T08:41:22.189Z,11.19
2023-02-23T08:43:52.074Z,11.66
2023-02-23T08:46:20.681Z,11.87
2023-02-23T08:48:48.831Z,12.00
2023-02-23T08:51:16.893Z,11.82
2023-02-23T08:53:48.602Z,12.05
2023-02-23T08:56:16.760Z,12.10
2023-02-23T08:58:44.809Z,12.19
2023-02-23T09:01:19.075Z,11.85
2023-02-23T09:03:47.194Z,11.32
2023-02-23T09:06:17.360Z,11.37
2023-02-23T09:08:45.168Z,11.50
2023-02-23T09:11:14.243Z,11.54
2023-02-23T09:13:41.967Z,11.78
2023-02-23T09:16:09.990Z,11.39
2023-02-23T09:18:38.728Z,12.02
2023-02-23T09:21:08.723Z,12.54
2023-02-23T09:23:36.923Z,12.60
2023-02-23T09:26:05.321Z,12.17
2023-02-23T09:28:35.105Z,11.95
2023-02-23T09:31:07.021Z,11.82
2023-02-23T09:33:34.960Z,12.16
2023-02-23T09:36:07.080Z,11.77
2023-02-23T09:38:35.046Z,12.00
2023-02-23T09:41:02.855Z,12.23
2023-02-23T09:43:38.172Z,12.34
2023-02-23T09:46:29.242Z,12.01
2023-02-23T09:49:03.502Z,12.57
2023-02-23T09:51:34.835Z,12.97
2023-02-23T09:54:04.442Z,13.36
2023-02-23T09:56:35.922Z,13.62
2023-02-23T09:59:07.366Z,13.93
2023-02-23T10:01:57.869Z,13.70
2023-02-23T10:04:32.166Z,13.90
2023-02-23T10:07:05.331Z,13.88
2023-02-23T10:10:04.110Z,14.22
2023-02-23T10:12:43.180Z,13.78
2023-02-23T10:15:21.789Z,13.66
2023-02-23T10:18:03.369Z,13.72
2023-02-23T10:20:44.315Z,14.11
2023-02-23T10:23:17.854Z,14.47
2023-02-23T10:25:50.812Z,14.48
2023-02-23T10:28:22.343Z,14.92
2023-02-23T10:30:53.727Z,14.84
2023-02-23T10:33:25.702Z,15.34
2023-02-23T10:36:12.532Z,15.23
2023-02-23T10:38:41.279Z,15.36
2023-02-23T10:41:11.721Z,15.21
2023-02-23T10:43:40.671Z,15.39
2023-02-23T10:46:18.503Z,14.97
2023-02-23T10:48:48.501Z,14.90
2023-02-23T10:51:21.219Z,15.12
2023-02-23T10:53:49.312Z,14.73
2023-02-23T10:56:19.720Z,14.92
2023-02-23T10:58:49.378Z,14.28
2023-02-23T11:01:36.396Z,14.16
2023-02-23T11:04:17.262Z,14.30
2023-02-23T11:06:46.723Z,14.23
2023-02-23T11:09:41.867Z,14.85
2023-02-23T11:12:21.701Z,15.35
2023-02-23T11:14:51.064Z,15.33
2023-02-23T11:17:30.274Z,15.46
2023-02-23T11:20:07.588Z,15.59
2023-02-23T11:22:38.912Z,15.79
2023-02-23T11:25:18.376Z,15.95
2023-02-23T11:27:53.796Z,16.13
2023-02-23T11:30:24.510Z,15.72
2023-02-23T11:32:57.529Z,15.97
2023-02-23T11:35:32.083Z,15.94
2023-02-23T11:38:00.459Z,14.92
2023-02-23T11:40:30.192Z,14.70
2023-02-23T11:43:07.329Z,15.09
2023-02-23T11:45:41.466Z,16.12
2023-02-23T11:48:22.148Z,16.47
2023-02-23T11:50:51.122Z,16.34
2023-02-23T11:53:22.259Z,16.79
2023-02-23T11:55:52.966Z,16.23
2023-02-23T11:58:26.983Z,16.84
2023-02-23T12:00:59.729Z,16.83
2023-02-23T12:03:32.080Z,16.89
2023-02-23T12:06:02.483Z,15.27
2023-02-23T12:08:38.793Z,15.42
2023-02-23T12:11:15.662Z,14.80
2023-02-23T12:13:47.502Z,15.60
2023-02-23T12:16:19.950Z,15.68
2023-02-23T12:18:55.901Z,15.21
2023-02-23T12:21:33.265Z,15.24
2023-02-23T12:24:11.094Z,15.94
2023-02-23T12:26:46.510Z,16.17
2023-02-23T12:29:22.731Z,15.82
2023-02-23T12:31:57.866Z,17.10
2023-02-23T12:34:31.814Z,16.23
2023-02-23T12:37:07.452Z,16.69
2023-02-23T12:39:39.811Z,15.03
2023-02-23T12:42:14.555Z,14.74
2023-02-23T12:44:47.753Z,14.80
2023-02-23T12:47:25.679Z,15.31
2023-02-23T12:50:00.297Z,14.68
2023-02-23T12:52:32.955Z,14.59
2023-02-23T12:55:00.808Z,14.46
2023-02-23T12:57:38.598Z,14.25
2023-02-23T13:00:41.001Z,14.24
2023-02-23T13:03:36.341Z,14.51
2023-02-23T13:06:12.052Z,14.78
2023-02-23T13:09:00.155Z,15.03
2023-02-23T13:11:47.035Z,14.61
2023-02-23T13:14:23.310Z,14.11
2023-02-23T13:16:55.425Z,14.81
2023-02-23T13:19:34.510Z,14.39
2023-02-23T13:22:22.224Z,14.64
2023-02-23T13:24:52.697Z,15.12
2023-02-23T13:27:28.231Z,14.77
2023-02-23T13:29:59.205Z,14.78
2023-02-23T13:32:32.001Z,14.92
2023-02-23T13:35:01.601Z,15.10
2023-02-23T13:37:36.547Z,14.75
2023-02-23T13:40:21.712Z,15.12
2023-02-23T13:43:01.042Z,15.39
2023-02-23T13:45:39.758Z,15.45
2023-02-23T13:48:20.363Z,14.97
2023-02-23T13:50:55.736Z,15.35
2023-02-23T13:53:41.645Z,15.28
2023-02-23T13:56:11.556Z,14.74
2023-02-23T13:58:47.932Z,15.17
2023-02-23T14:01:18.868Z,15.35
2023-02-23T14:03:54.685Z,14.95
2023-02-23T14:06:25.773Z,15.18
2023-02-23T14:09:00.744Z,15.02
2023-02-23T14:11:42.444Z,15.39
2023-02-23T14:14:17.031Z,15.66
2023-02-23T14:17:05.498Z,15.71
2023-02-23T14:19:37.640Z,16.08
2023-02-23T14:22:11.061Z,15.76
2023-02-23T14:24:40.473Z,15.55
2023-02-23T14:27:41.593Z,15.19
2023-02-23T14:30:25.422Z,15.07
2023-02-23T14:32:54.676Z,15.08
2023-02-23T14:35:50.617Z,15.56
2023-02-23T14:38:45.685Z,15.94
2023-02-23T14:41:22.621Z,15.86
2023-02-23T14:43:55.482Z,15.71
2023-02-23T14:46:26.162Z,15.56
2023-02-23T14:49:00.586Z,15.67
2023-02-23T14:51:42.296Z,15.63
2023-02-23T14:54:16.111Z,15.75
2023-02-23T14:56:50.716Z,14.96
2023-02-23T14:59:22.021Z,15.33
2023-02-23T15:01:51.976Z,15.65
2023-02-23T15:04:24.727Z,15.18
2023-02-23T15:06:56.122Z,15.48
2023-02-23T15:09:32.369Z,15.49
2023-02-23T15:12:15.017Z,15.99
2023-02-23T15:14:45.881Z,15.98
2023-02-23T15:17:19.691Z,15.98
2023-02-23T15:19:49.987Z,15.90
2023-02-23T15:22:24.746Z,16.10
2023-02-23T15:24:52.590Z,16.03
2023-02-23T15:27:26.953Z,15.69
2023-02-23T15:29:55.472Z,15.19
2023-02-23T15:32:26.161Z,14.71
2023-02-23T15:34:55.459Z,14.95
2023-02-23T15:37:31.562Z,15.24
2023-02-23T15:40:04.193Z,14.89
2023-02-23T15:42:38.193Z,14.97
2023-02-23T15:45:17.828Z,14.61
2023-02-23T15:47:45.689Z,14.60
2023-02-23T15:50:27.651Z,14.84
2023-02-23T15:53:02.083Z,14.72
2023-02-23T15:55:36.190Z,15.00
2023-02-23T15:58:18.759Z,15.10
2023-02-23T16:00:52.426Z,14.67
2023-02-23T16:03:25.269Z,14.78
2023-02-23T16:06:03.229Z,14.60
2023-02-23T16:08:35.927Z,14.43
2023-02-23T16:11:13.450Z,14.44
2023-02-23T16:13:45.861Z,14.12
2023-02-23T16:16:19.410Z,14.55
2023-02-23T16:18:52.058Z,14.65
2023-02-23T16:21:24.484Z,14.33
2023-02-23T16:23:54.677Z,14.47
2023-02-23T16:26:28.899Z,14.60
2023-02-23T16:29:00.711Z,14.23
2023-02-23T16:31:43.784Z,14.03
2023-02-23T16:34:22.291Z,14.47
2023-02-23T16:36:52.736Z,13.86
2023-02-23T16:39:25.363Z,14.07
2023-02-23T16:41:53.256Z,14.25
2023-02-23T16:44:26.350Z,14.44
2023-02-23T16:47:11.078Z,14.50
2023-02-23T16:49:39.224Z,14.52
2023-02-23T16:52:17.737Z,14.50
2023-02-23T16:54:48.348Z,14.44
2023-02-23T16:57:23.355Z,14.31
2023-02-23T16:59:55.069Z,14.27
2023-02-23T17:02:23.793Z,14.32
2023-02-23T17:04:58.964Z,14.25
2023-02-23T17:07:29.295Z,14.19
2023-02-23T17:09:57.041Z,14.28
2023-02-23T17:12:24.790Z,14.31
2023-02-23T17:14:53.987Z,14.23
2023-02-23T17:17:24.248Z,14.18
2023-02-23T17:19:52.094Z,14.11
2023-02-23T17:22:19.877Z,14.15
2023-02-23T17:24:47.668Z,14.19
2023-02-23T17:27:15.411Z,13.99
2023-02-23T17:29:43.181Z,14.08
2023-02-23T17:32:12.585Z,14.10
2023-02-23T17:34:40.640Z,14.01
2023-02-23T17:37:08.354Z,14.07
2023-02-23T17:39:37.493Z,14.04
2023-02-23T17:42:06.728Z,14.06
2023-02-23T17:44:34.466Z,14.09
2023-02-23T17:47:02.298Z,14.04
2023-02-23T17:49:31.432Z,14.09
2023-02-23T17:51:59.284Z,13.93
2023-02-23T17:54:29.056Z,13.96
2023-02-23T17:56:57.907Z,13.90
2023-02-23T17:59:25.719Z,13.97
2023-02-23T18:01:53.489Z,13.98
2023-02-23T18:04:21.327Z,13.95
2023-02-23T18:06:50.521Z,13.97
2023-02-23T18:09:18.318Z,13.90
2023-02-23T18:11:48.424Z,13.86
2023-02-23T18:14:17.166Z,13.77
2023-02-23T18:16:44.878Z,13.84
2023-02-23T18:19:13.060Z,13.80
2023-02-23T18:21:41.785Z,13.82
2023-02-23T18:24:11.821Z,13.79
2023-02-23T18:26:39.830Z,13.63
2023-02-23T18:29:08.037Z,13.26
2023-02-23T18:31:35.993Z,13.21
2023-02-23T18:34:03.823Z,13.40
2023-02-23T18:36:35.357Z,13.48
2023-02-23T18:39:06.441Z,13.44
2023-02-23T18:41:36.399Z,13.41
2023-02-23T18:44:08.778Z,13.27
2023-02-23T18:46:39.889Z,13.29
2023-02-23T18:49:08.228Z,13.12
2023-02-23T18:51:36.194Z,13.17
2023-02-23T18:54:10.604Z,13.15
2023-02-23T18:56:40.490Z,13.13
2023-02-23T18:59:08.389Z,13.16
2023-02-23T19:01:38.110Z,13.13
2023-02-23T19:04:10.833Z,13.13
2023-02-23T19:06:43.038Z,13.18
2023-02-23T19:09:14.547Z,13.19
2023-02-23T19:11:44.596Z,13.19
2023-02-23T19:14:15.833Z,13.03
2023-02-23T19:16:46.804Z,12.45
2023-02-23T19:19:16.084Z,12.42
2023-02-23T19:21:44.971Z,12.42
2023-02-23T19:24:14.258Z,12.41
2023-02-23T19:26:44.496Z,12.37
2023-02-23T19:29:12.855Z,12.32
2023-02-23T19:31:41.346Z,12.18
2023-02-23T19:34:12.804Z,12.04
2023-02-23T19:36:41.337Z,12.01
2023-02-23T19:39:15.807Z,12.05
2023-02-23T19:41:45.806Z,12.23
2023-02-23T19:44:14.417Z,12.53
2023-02-23T19:46:43.960Z,12.58
2023-02-23T19:49:11.952Z,12.48
2023-02-23T19:51:42.035Z,12.64
2023-02-23T19:54:09.834Z,12.74
2023-02-23T19:56:38.705Z,12.78
2023-02-23T19:59:07.915Z,12.73
2023-02-23T20:01:36.110Z,12.71
2023-02-23T20:04:06.602Z,12.69
2023-02-23T20:06:44.710Z,12.68
2023-02-23T20:09:12.760Z,12.71
2023-02-23T20:11:42.860Z,12.53
2023-02-23T20:14:12.567Z,12.36
2023-02-23T20:16:40.547Z,12.36
2023-02-23T20:19:08.413Z,11.85
2023-02-23T20:21:36.840Z,11.92
2023-02-23T20:24:07.503Z,11.90
2023-02-23T20:26:37.861Z,11.87
2023-02-23T20:29:10.958Z,12.13
2023-02-23T20:31:46.898Z,12.45
2023-02-23T20:34:14.845Z,12.52
2023-02-23T20:36:42.618Z,12.49
2023-02-23T20:39:11.180Z,12.44
2023-02-23T20:41:43.280Z,12.50
2023-02-23T20:44:11.589Z,12.51
2023-02-23T20:46:41.547Z,12.42
2023-02-23T20:49:12.516Z,12.44
2023-02-23T20:51:42.290Z,12.47
2023-02-23T20:54:11.705Z,12.38
2023-02-23T20:56:40.230Z,12.10
2023-02-23T20:59:11.070Z,12.03
2023-02-23T21:01:42.418Z,12.06
2023-02-23T21:04:12.691Z,12.10
2023-02-23T21:06:40.584Z,11.93
2023-02-23T21:09:12.595Z,11.97
2023-02-23T21:11:40.435Z,11.83
2023-02-23T21:14:08.437Z,11.79
2023-02-23T21:16:40.878Z,11.63
2023-02-23T21:19:13.934Z,12.01
2023-02-23T21:21:42.718Z,12.22
2023-02-23T21:24:11.412Z,12.19
2023-02-23T21:26:39.287Z,12.32
2023-02-23T21:29:11.638Z,12.28
2023-02-23T21:31:40.338Z,12.25
2023-02-23T21:34:08.864Z,12.33
2023-02-23T21:36:38.172Z,12.33
2023-02-23T21:39:07.035Z,12.37
2023-02-23T21:41:37.643Z,12.37
2023-02-23T21:44:07.367Z,12.34
2023-02-23T21:46:35.413Z,12.34
2023-02-23T21:49:09.629Z,12.38
2023-02-23T21:51:39.266Z,12.43
2023-02-23T21:54:07.261Z,12.37
2023-02-23T21:56:36.670Z,12.26
2023-02-23T21:59:06.204Z,12.31
2023-02-23T22:01:36.270Z,12.30
2023-02-23T22:04:05.224Z,12.29
2023-02-23T22:06:36.862Z,12.34
2023-02-23T22:09:06.550Z,12.37
2023-02-23T22:11:37.094Z,12.30
2023-02-23T22:14:10.039Z,12.04
2023-02-23T22:16:41.026Z,12.13
2023-02-23T22:19:09.721Z,12.16
2023-02-23T22:21:39.468Z,12.16
2023-02-23T22:24:10.493Z,12.18
2023-02-23T22:26:41.606Z,12.19
2023-02-23T22:29:10.802Z,12.28
2023-02-23T22:31:41.155Z,12.27
2023-02-23T22:34:09.136Z,12.29
2023-02-23T22:36:36.928Z,12.25
2023-02-23T22:39:07.331Z,12.26
2023-02-23T22:41:42.209Z,12.30
2023-02-23T22:44:13.298Z,12.23
2023-02-23T22:46:45.898Z,12.31
2023-02-23T22:49:15.802Z,12.27
2023-02-23T22:51:44.588Z,12.31
2023-02-23T22:54:13.246Z,12.33
2023-02-23T22:56:42.984Z,12.26
2023-02-23T22:59:11.259Z,12.26
2023-02-23T23:01:40.344Z,12.21
2023-02-23T23:04:11.145Z,12.20
2023-02-23T23:06:41.336Z,11.96
2023-02-23T23:09:13.293Z,12.16
2023-02-23T23:11:42.644Z,12.23
2023-02-23T23:14:11.402Z,12.29
2023-02-23T23:16:47.930Z,12.31
2023-02-23T23:19:17.665Z,12.19
2023-02-23T23:21:46.033Z,12.18
2023-02-23T23:24:15.211Z,12.14
2023-02-23T23:26:45.094Z,12.12
2023-02-23T23:29:14.871Z,12.07
2023-02-23T23:31:45.279Z,12.16
2023-02-23T23:34:16.419Z,11.94
2023-02-23T23:36:49.034Z,11.91
2023-02-23T23:39:17.384Z,12.04
2023-02-23T23:41:48.053Z,12.13
2023-02-23T23:44:17.100Z,12.21
2023-02-23T23:46:46.934Z,12.21
2023-02-23T23:49:17.526Z,12.13
2023-02-23T23:51:50.597Z,12.19
2023-02-23T23:54:21.456Z,12.24
2023-02-23T23:56:51.113Z,12.23
2023-02-23T23:59:21.232Z,12.08
